createdAt,value
2018-09-28T00:00:12.283Z,6.67
2018-09-28T00:02:40.797Z,7.43
2018-09-28T00:05:09.294Z,8.13
2018-09-28T00:07:37.757Z,7.10
2018-09-28T00:10:06.573Z,6.50
2018-09-28T00:12:35.050Z,4.70
2018-09-28T00:15:03.519Z,5.63
2018-09-28T00:17:31.986Z,5.57
2018-09-28T00:20:00.423Z,6.07
2018-09-28T00:22:29.269Z,4.40
2018-09-28T00:24:57.858Z,9.43
2018-09-28T00:27:26.319Z,5.50
2018-09-28T00:29:54.759Z,6.23
2018-09-28T00:32:23.223Z,10.03
2018-09-28T00:34:51.687Z,5.47
2018-09-28T00:37:20.147Z,4.70
2018-09-28T00:39:48.590Z,3.93
2018-09-28T00:42:17.316Z,3.90
2018-09-28T00:44:45.795Z,4.10
2018-09-28T00:47:14.214Z,4.70
2018-09-28T00:49:42.695Z,7.43
2018-09-28T00:52:11.162Z,4.10
2018-09-28T00:54:39.922Z,6.30
2018-09-28T00:57:08.375Z,6.67
2018-09-28T00:59:37.176Z,6.63
2018-09-28T01:02:05.630Z,5.00
2018-09-28T01:04:34.162Z,5.33
2018-09-28T01:07:02.908Z,6.23
2018-09-28T01:09:31.704Z,5.80
2018-09-28T01:12:00.388Z,5.50
2018-09-28T01:14:28.856Z,6.00
2018-09-28T01:16:57.598Z,5.33
2018-09-28T01:19:26.097Z,5.60
2018-09-28T01:21:54.810Z,4.63
2018-09-28T01:24:23.495Z,7.87
2018-09-28T01:26:51.922Z,5.93
2018-09-28T01:29:20.375Z,5.03
2018-09-28T01:31:48.802Z,5.73
2018-09-28T01:34:17.246Z,5.80
2018-09-28T01:36:45.730Z,6.17
2018-09-28T01:39:14.171Z,6.03
2018-09-28T01:41:42.582Z,9.00
2018-09-28T01:44:11.028Z,6.70
2018-09-28T01:46:39.446Z,5.10
2018-09-28T01:49:07.938Z,5.27
2018-09-28T01:51:36.638Z,8.00
2018-09-28T01:54:05.178Z,5.67
2018-09-28T01:56:33.617Z,6.73
2018-09-28T01:59:02.075Z,6.03
2018-09-28T02:01:30.557Z,7.70
2018-09-28T02:03:59.205Z,5.87
2018-09-28T02:06:27.621Z,5.00
2018-09-28T02:08:56.093Z,7.17
2018-09-28T02:11:24.722Z,5.37
2018-09-28T02:13:53.142Z,6.40
2018-09-28T02:16:21.588Z,3.97
2018-09-28T02:18:50.345Z,6.87
2018-09-28T02:21:19.046Z,4.17
2018-09-28T02:23:47.477Z,4.90
2018-09-28T02:26:16.222Z,5.80
2018-09-28T02:28:44.650Z,6.43
2018-09-28T02:31:13.066Z,5.13
2018-09-28T02:33:41.493Z,4.27
2018-09-28T02:36:09.919Z,5.07
2018-09-28T02:38:38.384Z,6.10
2018-09-28T02:41:07.172Z,5.57
2018-09-28T02:43:35.926Z,6.20
2018-09-28T02:46:04.426Z,7.13
2018-09-28T02:48:32.866Z,5.60
2018-09-28T02:51:01.338Z,6.80
2018-09-28T02:53:29.795Z,7.37
2018-09-28T02:55:58.554Z,6.70
2018-09-28T02:58:26.993Z,4.53
2018-09-28T03:00:55.889Z,8.60
2018-09-28T03:03:24.355Z,5.07
2018-09-28T03:05:52.818Z,5.03
2018-09-28T03:08:21.255Z,6.50
2018-09-28T03:10:49.682Z,10.10
2018-09-28T03:13:18.747Z,6.50
2018-09-28T03:15:47.294Z,5.70
2018-09-28T03:18:15.738Z,6.33
2018-09-28T03:20:44.155Z,7.23
2018-09-28T03:23:12.596Z,8.20
2018-09-28T03:25:41.057Z,4.97
2018-09-28T03:28:09.489Z,5.27
2018-09-28T03:30:37.942Z,10.10
2018-09-28T03:33:06.362Z,7.40
2018-09-28T03:35:35.114Z,6.87
2018-09-28T03:38:03.779Z,4.10
2018-09-28T03:40:32.217Z,5.93
2018-09-28T03:43:00.651Z,7.43
2018-09-28T03:45:29.092Z,5.40
2018-09-28T03:47:57.547Z,9.30
2018-09-28T03:50:26.378Z,5.63
2018-09-28T03:52:54.793Z,6.00
2018-09-28T03:55:23.232Z,8.50
2018-09-28T03:57:51.667Z,6.97
2018-09-28T04:00:20.127Z,5.83
2018-09-28T04:02:48.600Z,7.70
2018-09-28T04:05:17.406Z,4.97
2018-09-28T04:07:45.832Z,6.90
2018-09-28T04:10:14.282Z,9.53
2018-09-28T04:12:42.931Z,5.17
2018-09-28T04:15:11.485Z,5.27
2018-09-28T04:17:39.882Z,5.53
2018-09-28T04:20:08.319Z,11.03
2018-09-28T04:22:36.725Z,6.73
2018-09-28T04:25:05.221Z,5.73
2018-09-28T04:27:33.640Z,6.17
2018-09-28T04:30:08.775Z,7.00
2018-09-28T04:32:37.434Z,7.90
2018-09-28T04:35:05.958Z,6.70
2018-09-28T04:37:34.370Z,6.27
2018-09-28T04:40:02.864Z,6.13
2018-09-28T04:42:31.303Z,7.33
2018-09-28T04:45:00.110Z,5.40
2018-09-28T04:47:28.564Z,6.07
2018-09-28T04:49:57.003Z,6.03
2018-09-28T04:52:25.419Z,10.07
2018-09-28T04:54:53.885Z,5.67
2018-09-28T04:57:22.315Z,6.93
2018-09-28T04:59:50.743Z,5.70
2018-09-28T05:02:19.753Z,9.10
2018-09-28T05:04:48.212Z,8.17
2018-09-28T05:07:16.362Z,6.03
2018-09-28T05:09:44.810Z,6.63
2018-09-28T05:12:13.225Z,6.33
2018-09-28T05:14:41.714Z,7.43
2018-09-28T05:17:10.142Z,6.83
2018-09-28T05:19:38.686Z,4.63
2018-09-28T05:22:07.107Z,7.03
2018-09-28T05:24:35.555Z,6.03
2018-09-28T05:27:03.995Z,6.03
2018-09-28T05:29:32.464Z,10.30
2018-09-28T05:32:00.937Z,6.43
2018-09-28T05:34:29.669Z,4.70
2018-09-28T05:36:58.115Z,7.07
2018-09-28T05:39:26.989Z,5.20
2018-09-28T05:41:55.394Z,8.60
2018-09-28T05:44:23.844Z,10.03
2018-09-28T05:46:52.270Z,6.20
2018-09-28T05:49:21.322Z,9.30
2018-09-28T05:51:49.749Z,6.10
2018-09-28T05:54:18.194Z,7.63
2018-09-28T05:56:46.610Z,5.73
2018-09-28T05:59:20.261Z,6.33
2018-09-28T06:01:54.131Z,8.73
2018-09-28T06:04:27.748Z,7.33
2018-09-28T06:06:56.190Z,6.70
2018-09-28T06:09:24.646Z,5.03
2018-09-28T06:11:53.130Z,7.47
2018-09-28T06:14:21.598Z,5.80
2018-09-28T06:16:50.027Z,5.13
2018-09-28T06:19:18.746Z,7.70
2018-09-28T06:21:47.170Z,6.47
2018-09-28T06:24:15.704Z,8.40
2018-09-28T06:26:44.261Z,7.47
2018-09-28T06:29:12.694Z,8.87
2018-09-28T06:31:41.799Z,8.87
2018-09-28T06:34:10.229Z,8.40
2018-09-28T06:36:38.722Z,6.10
2018-09-28T06:39:07.530Z,9.00
2018-09-28T06:41:36.102Z,8.13
2018-09-28T06:44:04.871Z,8.47
2018-09-28T06:46:33.323Z,4.60
2018-09-28T06:49:01.975Z,6.10
2018-09-28T06:51:30.436Z,6.63
2018-09-28T06:53:58.957Z,7.70
2018-09-28T06:56:27.372Z,6.10
2018-09-28T06:58:55.852Z,9.10
2018-09-28T07:01:24.696Z,5.87
2018-09-28T07:03:53.384Z,7.47
2018-09-28T07:06:21.887Z,5.20
2018-09-28T07:08:50.326Z,8.23
2018-09-28T07:11:18.772Z,5.73
2018-09-28T07:13:47.206Z,6.47
2018-09-28T07:16:15.673Z,8.93
2018-09-28T07:18:44.100Z,6.67
2018-09-28T07:21:12.552Z,6.30
2018-09-28T07:23:41.098Z,8.33
2018-09-28T07:26:09.860Z,9.87
2018-09-28T07:28:38.643Z,7.77
2018-09-28T07:31:07.275Z,10.20
2018-09-28T07:33:35.698Z,7.33
2018-09-28T07:36:04.224Z,8.43
2018-09-28T07:38:32.631Z,7.23
2018-09-28T07:41:01.088Z,9.00
2018-09-28T07:43:29.545Z,7.43
2018-09-28T07:45:58.004Z,7.47
2018-09-28T07:48:26.430Z,8.10
2018-09-28T07:50:55.631Z,7.10
2018-09-28T07:53:24.326Z,10.23
2018-09-28T07:55:52.858Z,8.07
2018-09-28T07:58:21.247Z,8.80
2018-09-28T08:00:49.694Z,11.90
2018-09-28T08:03:21.662Z,9.33
2018-09-28T08:05:50.122Z,9.17
2018-09-28T08:08:18.844Z,8.77
2018-09-28T08:10:47.288Z,8.87
2018-09-28T08:13:15.770Z,7.43
2018-09-28T08:15:44.374Z,8.67
2018-09-28T08:18:12.844Z,13.73
2018-09-28T08:20:41.294Z,12.73
2018-09-28T08:23:09.749Z,8.30
2018-09-28T08:25:38.215Z,9.13
2018-09-28T08:28:06.790Z,11.40
2018-09-28T08:30:35.942Z,9.60
2018-09-28T08:33:04.604Z,8.93
2018-09-28T08:35:33.070Z,11.27
2018-09-28T08:38:01.583Z,10.90
2018-09-28T08:40:30.026Z,10.40
2018-09-28T08:42:58.475Z,8.50
2018-09-28T08:45:27.245Z,20.03
2018-09-28T08:47:55.792Z,12.90
2018-09-28T08:50:24.274Z,13.03
2018-09-28T08:52:53.022Z,11.30
2018-09-28T08:55:21.467Z,12.30
2018-09-28T08:57:49.920Z,14.30
2018-09-28T09:00:18.347Z,12.23
2018-09-28T09:02:46.822Z,16.63
2018-09-28T09:05:15.530Z,17.07
2018-09-28T09:07:43.995Z,15.37
2018-09-28T09:10:12.784Z,15.90
2018-09-28T09:12:41.904Z,17.50
2018-09-28T09:15:10.342Z,19.33
2018-09-28T09:17:39.172Z,15.40
2018-09-28T09:20:07.788Z,18.03
2018-09-28T09:22:36.301Z,14.13
2018-09-28T09:25:04.743Z,14.70
2018-09-28T09:27:33.203Z,20.43
2018-09-28T09:30:01.690Z,19.83
2018-09-28T09:32:30.097Z,21.63
2018-09-28T09:34:58.542Z,16.83
2018-09-28T09:37:27.429Z,20.40
2018-09-28T09:39:56.160Z,18.43
2018-09-28T09:42:24.602Z,18.87
2018-09-28T09:44:53.030Z,21.33
2018-09-28T09:47:21.480Z,19.93
2018-09-28T09:49:49.934Z,22.07
2018-09-28T09:52:19.221Z,24.63
2018-09-28T09:54:47.662Z,36.67
2018-09-28T09:57:16.150Z,23.40
2018-09-28T09:59:44.620Z,28.83
2018-09-28T10:02:18.576Z,26.40
2018-09-28T10:04:47.250Z,24.53
2018-09-28T10:07:15.719Z,26.50
2018-09-28T10:09:44.220Z,30.50
2018-09-28T10:12:12.664Z,24.87
2018-09-28T10:14:41.082Z,23.53
2018-09-28T10:17:09.559Z,25.57
2018-09-28T10:19:38.284Z,22.23
2018-09-28T10:22:06.745Z,27.37
2018-09-28T10:24:35.178Z,27.97
2018-09-28T10:27:03.977Z,27.50
2018-09-28T10:29:32.414Z,28.97
2018-09-28T10:32:00.922Z,24.97
2018-09-28T10:34:29.368Z,25.83
2018-09-28T10:36:57.870Z,21.83
2018-09-28T10:39:26.638Z,21.00
2018-09-28T10:41:55.050Z,17.23
2018-09-28T10:44:23.518Z,24.20
2018-09-28T10:46:52.313Z,19.70
2018-09-28T10:49:20.765Z,22.63
2018-09-28T10:51:49.268Z,16.60
2018-09-28T10:54:17.990Z,14.30
2018-09-28T10:56:46.508Z,18.80
2018-09-28T10:59:15.247Z,14.90
2018-09-28T11:01:43.702Z,14.77
2018-09-28T11:04:12.259Z,15.00
2018-09-28T11:06:41.227Z,19.27
2018-09-28T11:09:10.863Z,14.40
2018-09-28T11:11:39.734Z,19.80
2018-09-28T11:14:08.628Z,13.83
2018-09-28T11:16:37.211Z,12.90
2018-09-28T11:19:06.021Z,15.40
2018-09-28T11:21:34.532Z,18.23
2018-09-28T11:24:02.991Z,13.87
2018-09-28T11:26:31.559Z,14.77
2018-09-28T11:29:00.227Z,13.43
2018-09-28T11:31:28.690Z,17.83
2018-09-28T11:33:57.115Z,14.57
2018-09-28T11:36:25.642Z,15.83
2018-09-28T11:38:54.655Z,16.17
2018-09-28T11:41:24.258Z,15.20
2018-09-28T11:43:52.676Z,11.50
2018-09-28T11:46:21.110Z,14.13
2018-09-28T11:48:49.798Z,17.53
2018-09-28T11:51:18.279Z,14.53
2018-09-28T11:53:47.266Z,14.90
2018-09-28T11:56:15.956Z,15.90
2018-09-28T11:58:44.723Z,14.30
2018-09-28T12:01:13.197Z,13.30
2018-09-28T12:03:41.763Z,22.93
2018-09-28T12:06:10.442Z,14.13
2018-09-28T12:08:38.890Z,17.80
2018-09-28T12:11:07.497Z,15.70
2018-09-28T12:13:35.997Z,14.07
2018-09-28T12:16:04.635Z,15.10
2018-09-28T12:18:33.730Z,16.43
2018-09-28T12:21:02.117Z,21.43
2018-09-28T12:23:30.850Z,15.10
2018-09-28T12:25:59.345Z,15.93
2018-09-28T12:28:27.820Z,15.63
2018-09-28T12:30:56.275Z,15.17
2018-09-28T12:33:24.794Z,18.53
2018-09-28T12:35:53.550Z,24.63
2018-09-28T12:38:22.438Z,18.03
2018-09-28T12:40:51.155Z,24.13
2018-09-28T12:43:19.599Z,21.53
2018-09-28T12:45:48.068Z,15.77
2018-09-28T12:48:16.535Z,30.70
2018-09-28T12:50:44.960Z,19.90
2018-09-28T12:53:13.678Z,20.30
2018-09-28T12:55:42.106Z,18.50
2018-09-28T12:58:10.557Z,20.30
2018-09-28T13:00:39.083Z,24.27
2018-09-28T13:03:08.169Z,22.70
2018-09-28T13:05:36.577Z,21.97
2018-09-28T13:08:05.275Z,22.30
2018-09-28T13:10:33.706Z,19.93
2018-09-28T13:13:02.191Z,21.33
2018-09-28T13:15:30.623Z,20.70
2018-09-28T13:17:59.118Z,19.53
2018-09-28T13:20:28.033Z,19.97
2018-09-28T13:22:56.430Z,17.90
2018-09-28T13:25:24.870Z,17.70
2018-09-28T13:27:53.425Z,20.53
2018-09-28T13:30:21.875Z,20.77
2018-09-28T13:32:50.389Z,17.60
2018-09-28T13:35:18.808Z,16.47
2018-09-28T13:37:47.269Z,16.13
2018-09-28T13:40:15.709Z,11.70
2018-09-28T13:42:44.200Z,13.20
2018-09-28T13:45:13.075Z,14.93
2018-09-28T13:47:41.392Z,12.33
2018-09-28T13:50:09.849Z,12.37
2018-09-28T13:52:38.296Z,15.23
2018-09-28T13:55:06.809Z,11.43
2018-09-28T13:57:35.318Z,11.10
2018-09-28T14:00:03.766Z,16.20
2018-09-28T14:02:32.637Z,10.83
2018-09-28T14:05:01.370Z,9.40
2018-09-28T14:07:29.816Z,11.53
2018-09-28T14:09:58.557Z,12.53
2018-09-28T14:12:27.078Z,10.50
2018-09-28T14:14:55.802Z,7.40
2018-09-28T14:17:24.266Z,10.03
2018-09-28T14:19:53.295Z,6.50
2018-09-28T14:22:22.144Z,10.70
2018-09-28T14:24:50.912Z,7.87
2018-09-28T14:27:19.264Z,7.50
2018-09-28T14:29:47.726Z,10.03
2018-09-28T14:32:16.191Z,11.10
2018-09-28T14:34:44.726Z,7.70
2018-09-28T14:37:13.736Z,7.87
2018-09-28T14:39:42.179Z,7.87
2018-09-28T14:42:10.612Z,12.17
2018-09-28T14:44:39.186Z,9.77
2018-09-28T14:47:07.838Z,9.10
2018-09-28T14:49:36.280Z,8.23
2018-09-28T14:52:04.694Z,7.30
2018-09-28T14:54:33.203Z,5.20
2018-09-28T14:57:01.981Z,7.53
2018-09-28T14:59:30.418Z,5.90
2018-09-28T15:01:59.138Z,7.13
2018-09-28T15:04:27.633Z,7.10
2018-09-28T15:06:56.071Z,7.33
2018-09-28T15:09:24.476Z,11.93
2018-09-28T15:11:52.895Z,9.13
2018-09-28T15:14:21.622Z,7.73
2018-09-28T15:16:50.015Z,10.20
2018-09-28T15:19:18.455Z,8.20
2018-09-28T15:21:46.883Z,6.67
2018-09-28T15:24:15.346Z,7.27
2018-09-28T15:26:43.778Z,9.67
2018-09-28T15:29:12.246Z,15.17
2018-09-28T15:31:40.979Z,8.70
2018-09-28T15:34:09.459Z,7.33
2018-09-28T15:36:37.902Z,12.73
2018-09-28T15:39:09.452Z,8.80
2018-09-28T15:41:37.893Z,6.90
2018-09-28T15:44:06.394Z,10.53
2018-09-28T15:46:34.858Z,8.83
2018-09-28T15:49:03.613Z,8.13
2018-09-28T15:51:32.035Z,8.07
2018-09-28T15:54:00.590Z,8.67
2018-09-28T15:56:29.007Z,7.53
2018-09-28T15:58:57.739Z,8.43
2018-09-28T16:01:26.151Z,6.67
2018-09-28T16:03:54.909Z,9.70
2018-09-28T16:06:23.331Z,9.10
2018-09-28T16:08:51.769Z,7.30
2018-09-28T16:11:20.271Z,5.40
2018-09-28T16:13:48.754Z,9.47
2018-09-28T16:16:17.265Z,6.87
2018-09-28T16:18:46.177Z,6.80
2018-09-28T16:21:14.802Z,5.23
2018-09-28T16:23:43.240Z,6.10
2018-09-28T16:26:11.655Z,8.30
2018-09-28T16:28:40.149Z,7.33
2018-09-28T16:31:08.594Z,10.90
2018-09-28T16:33:37.083Z,11.73
2018-09-28T16:36:05.579Z,5.03
2018-09-28T16:38:33.987Z,9.30
2018-09-28T16:41:02.753Z,6.43
2018-09-28T16:43:31.480Z,7.90
2018-09-28T16:45:59.988Z,8.03
2018-09-28T16:48:28.426Z,7.87
2018-09-28T16:50:56.887Z,6.20
2018-09-28T16:53:25.593Z,9.80
2018-09-28T16:55:54.563Z,11.40
2018-09-28T16:58:23.578Z,5.30
2018-09-28T17:00:51.985Z,4.10
2018-09-28T17:03:20.423Z,7.13
2018-09-28T17:05:48.855Z,5.47
2018-09-28T17:08:17.642Z,3.87
2018-09-28T17:10:46.799Z,6.70
2018-09-28T17:13:15.203Z,9.77
2018-09-28T17:15:43.697Z,8.63
2018-09-28T17:18:12.183Z,7.57
2018-09-28T17:20:40.634Z,11.70
2018-09-28T17:23:09.784Z,7.50
2018-09-28T17:25:38.230Z,4.50
2018-09-28T17:28:07.145Z,5.47
2018-09-28T17:30:35.645Z,9.73
2018-09-28T17:33:04.064Z,9.00
2018-09-28T17:35:32.536Z,5.70
2018-09-28T17:38:00.945Z,8.43
2018-09-28T17:40:30.033Z,12.13
2018-09-28T17:42:58.460Z,9.17
2018-09-28T17:45:27.571Z,18.30
2018-09-28T17:47:56.012Z,7.27
2018-09-28T17:50:25.382Z,6.63
2018-09-28T17:52:53.809Z,8.70
2018-09-28T17:55:22.251Z,8.63
2018-09-28T17:57:50.671Z,9.80
2018-09-28T18:00:19.138Z,10.83
2018-09-28T18:02:47.842Z,12.40
2018-09-28T18:05:16.376Z,8.63
2018-09-28T18:07:45.110Z,11.10
2018-09-28T18:10:13.554Z,13.50
2018-09-28T18:12:41.997Z,14.03
2018-09-28T18:15:10.678Z,7.90
2018-09-28T18:17:39.174Z,5.47
2018-09-28T18:20:08.083Z,7.77
2018-09-28T18:22:36.510Z,15.17
2018-09-28T18:25:05.383Z,9.43
2018-09-28T18:27:34.120Z,7.80
2018-09-28T18:30:02.734Z,11.67
2018-09-28T18:32:31.199Z,7.50
2018-09-28T18:34:59.637Z,11.00
2018-09-28T18:37:31.888Z,9.07
2018-09-28T18:40:00.591Z,11.57
2018-09-28T18:42:30.422Z,8.57
2018-09-28T18:44:58.848Z,6.73
2018-09-28T18:47:27.279Z,10.13
2018-09-28T18:49:55.698Z,10.30
2018-09-28T18:52:24.251Z,10.73
2018-09-28T18:54:52.891Z,12.00
2018-09-28T18:57:21.335Z,9.60
2018-09-28T18:59:49.761Z,8.60
2018-09-28T19:02:18.214Z,12.03
2018-09-28T19:04:46.667Z,7.43
2018-09-28T19:07:15.456Z,6.13
2018-09-28T19:09:44.131Z,6.50
2018-09-28T19:12:12.626Z,7.23
2018-09-28T19:14:41.075Z,9.07
2018-09-28T19:17:09.506Z,8.40
2018-09-28T19:19:38.164Z,8.83
2018-09-28T19:22:06.934Z,8.30
2018-09-28T19:24:35.661Z,16.23
2018-09-28T19:27:04.114Z,9.67
2018-09-28T19:29:32.547Z,12.00
2018-09-28T19:32:01.209Z,7.10
2018-09-28T19:34:29.662Z,5.10
2018-09-28T19:36:58.150Z,6.30
2018-09-28T19:39:26.849Z,8.13
2018-09-28T19:41:55.324Z,11.53
2018-09-28T19:44:23.766Z,15.50
2018-09-28T19:46:52.209Z,11.77
2018-09-28T19:49:20.952Z,13.43
2018-09-28T19:51:49.430Z,13.73
2018-09-28T19:54:17.841Z,9.53
2018-09-28T19:56:46.311Z,10.20
2018-09-28T19:59:15.030Z,9.33
2018-09-28T20:01:43.770Z,7.60
2018-09-28T20:04:12.808Z,10.37
2018-09-28T20:06:41.262Z,10.43
2018-09-28T20:09:11.139Z,10.63
2018-09-28T20:11:39.842Z,8.57
2018-09-28T20:14:08.970Z,9.60
2018-09-28T20:16:37.748Z,9.03
2018-09-28T20:19:06.530Z,9.20
2018-09-28T20:21:35.035Z,8.33
2018-09-28T20:24:05.256Z,10.20
2018-09-28T20:26:34.098Z,10.63
2018-09-28T20:29:02.855Z,9.50
2018-09-28T20:31:31.393Z,9.90
2018-09-28T20:34:00.159Z,13.97
2018-09-28T20:36:28.641Z,12.27
2018-09-28T20:38:57.148Z,12.30
2018-09-28T20:41:25.595Z,9.63
2018-09-28T20:43:54.366Z,13.03
2018-09-28T20:46:22.814Z,12.70
2018-09-28T20:48:51.357Z,14.73
2018-09-28T20:51:19.775Z,7.83
2018-09-28T20:53:48.250Z,8.83
2018-09-28T20:56:16.673Z,9.03
2018-09-28T20:58:45.156Z,8.83
2018-09-28T21:01:13.575Z,9.80
2018-09-28T21:03:42.020Z,8.53
2018-09-28T21:06:10.439Z,12.40
2018-09-28T21:08:38.883Z,9.10
2018-09-28T21:11:07.302Z,7.87
2018-09-28T21:13:35.779Z,8.57
2018-09-28T21:16:04.210Z,7.17
2018-09-28T21:18:32.674Z,8.83
2018-09-28T21:21:01.133Z,6.03
2018-09-28T21:23:30.126Z,10.87
2018-09-28T21:25:59.043Z,9.50
2018-09-28T21:28:27.499Z,11.67
2018-09-28T21:30:56.267Z,9.73
2018-09-28T21:33:24.980Z,5.43
2018-09-28T21:35:53.441Z,8.73
2018-09-28T21:38:21.887Z,6.57
2018-09-28T21:40:50.314Z,8.60
2018-09-28T21:43:18.864Z,7.27
2018-09-28T21:45:47.622Z,10.13
2018-09-28T21:48:16.060Z,7.53
2018-09-28T21:50:44.506Z,10.70
2018-09-28T21:53:12.990Z,8.50
2018-09-28T21:55:41.419Z,5.30
2018-09-28T21:58:09.864Z,9.33
2018-09-28T22:00:39.064Z,8.97
2018-09-28T22:03:08.742Z,7.37
2018-09-28T22:05:37.182Z,9.10
2018-09-28T22:08:05.895Z,10.70
2018-09-28T22:10:34.441Z,10.83
2018-09-28T22:13:02.906Z,5.00
2018-09-28T22:15:31.386Z,11.37
2018-09-28T22:17:59.806Z,10.53
2018-09-28T22:20:28.255Z,5.33
2018-09-28T22:22:56.657Z,8.70
2018-09-28T22:25:25.134Z,5.17
2018-09-28T22:27:53.871Z,9.37
2018-09-28T22:30:22.610Z,16.67
2018-09-28T22:32:51.044Z,8.10
2018-09-28T22:35:19.522Z,5.83
2018-09-28T22:37:47.961Z,7.23
2018-09-28T22:40:16.398Z,8.67
2018-09-28T22:42:45.664Z,11.17
2018-09-28T22:45:14.127Z,11.07
2018-09-28T22:47:42.534Z,13.57
2018-09-28T22:50:11.012Z,11.17
2018-09-28T22:52:39.978Z,6.90
2018-09-28T22:55:08.226Z,8.30
2018-09-28T22:57:36.985Z,14.30
2018-09-28T23:00:05.612Z,10.50
2018-09-28T23:02:34.117Z,12.53
2018-09-28T23:05:02.580Z,8.00
2018-09-28T23:07:31.055Z,11.87
2018-09-28T23:09:59.831Z,6.53
2018-09-28T23:12:28.239Z,15.50
2018-09-28T23:14:56.767Z,7.00
2018-09-28T23:17:25.488Z,6.73
2018-09-28T23:19:53.947Z,11.70
2018-09-28T23:22:22.365Z,10.27
2018-09-28T23:24:51.182Z,5.93
2018-09-28T23:27:19.908Z,11.10
2018-09-28T23:29:48.387Z,7.07
2018-09-28T23:32:16.842Z,7.97
2018-09-28T23:34:45.653Z,11.60
2018-09-28T23:37:14.089Z,7.63
2018-09-28T23:39:42.559Z,10.83
2018-09-28T23:42:10.984Z,13.93
2018-09-28T23:44:39.438Z,8.03
2018-09-28T23:47:08.387Z,10.90
2018-09-28T23:49:37.071Z,8.97
2018-09-28T23:52:05.561Z,4.90
2018-09-28T23:54:34.294Z,8.13
2018-09-28T23:57:02.744Z,5.47
2018-09-28T23:59:31.198Z,7.33
